createdAt,value
2023-01-01T00:00:16.601Z,100342.13
2023-01-01T00:03:21.669Z,100336.88
2023-01-01T00:06:25.184Z,100339.47
2023-01-01T00:09:45.303Z,100344.22
2023-01-01T00:12:48.071Z,100342.44
2023-01-01T00:15:52.080Z,100349.78
2023-01-01T00:19:07.053Z,100346.41
2023-01-01T00:22:52.145Z,100359.13
2023-01-01T00:25:36.485Z,100350.25
2023-01-01T00:28:39.465Z,100355.06
2023-01-01T00:31:43.580Z,100349.84
2023-01-01T00:34:46.275Z,100361.75
2023-01-01T00:37:49.014Z,100364.56
2023-01-01T00:40:51.664Z,100356.47
2023-01-01T00:43:54.365Z,100357.97
2023-01-01T00:46:58.383Z,100358.88
2023-01-01T00:50:13.361Z,100356.00
2023-01-01T00:53:16.266Z,100373.59
2023-01-01T00:56:18.970Z,100353.63
2023-01-01T00:59:26.891Z,100375.59
2023-01-01T01:02:32.900Z,100358.97
2023-01-01T01:05:37.320Z,100359.69
2023-01-01T01:08:44.865Z,100364.63
2023-01-01T01:11:47.834Z,100364.91
2023-01-01T01:14:50.531Z,100361.91
2023-01-01T01:17:54.555Z,100367.94
2023-01-01T01:21:07.476Z,100367.94
2023-01-01T01:24:10.953Z,100368.03
2023-01-01T01:27:20.853Z,100360.81
2023-01-01T01:30:23.586Z,100359.06
2023-01-01T01:33:27.756Z,100365.56
2023-01-01T01:36:30.826Z,100372.19
2023-01-01T01:39:36.384Z,100370.09
2023-01-01T01:42:39.101Z,100370.22
2023-01-01T01:45:45.017Z,100373.28
2023-01-01T01:48:52.400Z,100372.66
2023-01-01T01:51:58.047Z,100370.16
2023-01-01T01:55:02.578Z,100376.63
2023-01-01T01:58:06.773Z,100380.50
2023-01-01T02:01:10.013Z,100377.03
2023-01-01T02:04:18.063Z,100374.69
2023-01-01T02:07:22.947Z,100370.53
2023-01-01T02:10:34.130Z,100377.00
2023-01-01T02:13:36.798Z,100369.09
2023-01-01T02:16:47.576Z,100380.59
2023-01-01T02:20:09.705Z,100372.78
2023-01-01T02:23:44.706Z,100380.84
2023-01-01T02:27:02.236Z,100386.34
2023-01-01T02:30:12.275Z,100366.31
2023-01-01T02:33:19.657Z,100385.25
2023-01-01T02:36:31.116Z,100379.09
2023-01-01T02:39:36.221Z,100380.03
2023-01-01T02:42:39.083Z,100397.22
2023-01-01T02:45:43.354Z,100390.91
2023-01-01T02:48:48.001Z,100387.63
2023-01-01T02:52:12.916Z,100386.13
2023-01-01T02:55:28.724Z,100381.84
2023-01-01T02:58:58.348Z,100385.56
2023-01-01T03:02:10.864Z,100373.41
2023-01-01T03:05:22.061Z,100388.66
2023-01-01T03:08:42.013Z,100395.78
2023-01-01T03:11:51.820Z,100398.16
2023-01-01T03:15:02.168Z,100388.94
2023-01-01T03:18:09.396Z,100388.28
2023-01-01T03:24:27.098Z,100403.25
2023-01-01T03:27:37.688Z,100418.69
2023-01-01T03:30:42.829Z,100417.00
2023-01-01T03:34:01.064Z,100431.75
2023-01-01T03:37:16.868Z,100420.19
2023-01-01T03:40:22.196Z,100433.50
2023-01-01T03:43:40.681Z,100435.28
2023-01-01T03:46:43.513Z,100436.41
2023-01-01T03:49:48.301Z,100435.66
2023-01-01T03:52:58.535Z,100434.44
2023-01-01T03:56:09.278Z,100439.38
2023-01-01T03:59:18.692Z,100438.66
2023-01-01T04:02:34.045Z,100436.97
2023-01-01T04:05:41.727Z,100427.72
2023-01-01T04:08:44.438Z,100423.25
2023-01-01T04:12:07.444Z,100416.94
2023-01-01T04:15:10.745Z,100421.56
2023-01-01T04:18:13.393Z,100437.16
2023-01-01T04:21:23.420Z,100422.75
2023-01-01T04:24:26.973Z,100424.81
2023-01-01T04:27:29.783Z,100417.78
2023-01-01T04:30:32.757Z,100419.53
2023-01-01T04:33:37.935Z,100428.31
2023-01-01T04:36:44.535Z,100422.75
2023-01-01T04:39:47.275Z,100427.31
2023-01-01T04:43:05.316Z,100426.56
2023-01-01T04:46:08.039Z,100423.72
2023-01-01T04:49:13.747Z,100421.00
2023-01-01T04:52:17.755Z,100420.84
2023-01-01T04:55:23.462Z,100412.69
2023-01-01T04:58:26.106Z,100417.97
2023-01-01T05:01:30.183Z,100400.25
2023-01-01T05:04:33.385Z,100402.25
2023-01-01T05:07:40.468Z,100400.91
2023-01-01T05:10:43.842Z,100412.94
2023-01-01T05:13:49.450Z,100413.50
2023-01-01T05:16:57.960Z,100414.94
2023-01-01T05:20:03.832Z,100418.53
2023-01-01T05:23:09.161Z,100417.25
2023-01-01T05:26:12.877Z,100427.09
2023-01-01T05:29:17.243Z,100433.22
2023-01-01T05:32:26.219Z,100435.00
2023-01-01T05:35:28.894Z,100428.59
2023-01-01T05:38:36.237Z,100444.75
2023-01-01T05:41:41.247Z,100439.13
2023-01-01T05:44:43.875Z,100426.81
2023-01-01T05:47:46.894Z,100429.38
2023-01-01T05:50:49.552Z,100434.47
2023-01-01T05:53:54.794Z,100434.56
2023-01-01T05:57:05.848Z,100440.06
2023-01-01T06:00:16.879Z,100439.13
2023-01-01T06:03:19.734Z,100450.81
2023-01-01T06:06:25.017Z,100450.63
2023-01-01T06:09:34.501Z,100457.66
2023-01-01T06:12:41.780Z,100448.28
2023-01-01T06:15:44.986Z,100458.28
2023-01-01T06:18:47.731Z,100457.50
2023-01-01T06:21:50.482Z,100470.38
2023-01-01T06:24:54.436Z,100479.75
2023-01-01T06:28:00.202Z,100478.97
2023-01-01T06:31:04.147Z,100485.34
2023-01-01T06:34:10.164Z,100479.09
2023-01-01T06:37:12.776Z,100479.44
2023-01-01T06:40:16.889Z,100473.13
2023-01-01T06:43:19.531Z,100475.75
2023-01-01T06:46:26.906Z,100471.34
2023-01-01T06:49:31.851Z,100482.31
2023-01-01T06:52:37.520Z,100488.63
2023-01-01T06:55:54.936Z,100496.78
2023-01-01T06:59:02.555Z,100488.88
2023-01-01T07:02:05.349Z,100504.94
2023-01-01T07:05:08.967Z,100515.75
2023-01-01T07:08:18.410Z,100520.47
2023-01-01T07:11:22.777Z,100525.19
2023-01-01T07:14:25.456Z,100531.50
2023-01-01T07:17:28.307Z,100535.03
2023-01-01T07:20:30.998Z,100547.09
2023-01-01T07:23:36.163Z,100547.47
2023-01-01T07:26:41.051Z,100560.59
2023-01-01T07:29:46.121Z,100562.59
2023-01-01T07:32:48.763Z,100571.84
2023-01-01T07:35:51.531Z,100572.72
2023-01-01T07:38:54.195Z,100573.84
2023-01-01T07:41:58.086Z,100577.66
2023-01-01T07:45:08.307Z,100580.69
2023-01-01T07:48:15.545Z,100587.97
2023-01-01T07:51:18.266Z,100583.66
2023-01-01T07:54:20.913Z,100580.09
2023-01-01T07:57:24.870Z,100584.78
2023-01-01T08:00:30.100Z,100600.25
2023-01-01T08:03:32.823Z,100602.13
2023-01-01T08:06:38.588Z,100598.59
2023-01-01T08:09:41.568Z,100603.84
2023-01-01T08:12:45.512Z,100602.78
2023-01-01T08:15:48.166Z,100605.28
2023-01-01T08:18:53.965Z,100610.66
2023-01-01T08:21:56.983Z,100621.38
2023-01-01T08:24:59.653Z,100626.81
2023-01-01T08:28:03.661Z,100628.41
2023-01-01T08:31:06.666Z,100619.97
2023-01-01T08:34:09.420Z,100629.41
2023-01-01T08:37:14.502Z,100626.44
2023-01-01T08:40:17.124Z,100619.84
2023-01-01T08:43:21.159Z,100618.75
2023-01-01T08:46:23.907Z,100620.22
2023-01-01T08:49:27.620Z,100621.00
2023-01-01T08:52:30.364Z,100616.16
2023-01-01T08:55:38.284Z,100617.59
2023-01-01T08:58:43.119Z,100603.75
2023-01-01T09:01:49.026Z,100605.38
2023-01-01T09:04:53.980Z,100619.53
2023-01-01T09:07:56.669Z,100619.19
2023-01-01T09:11:00.570Z,100608.94
2023-01-01T09:14:20.018Z,100617.03
2023-01-01T09:17:22.694Z,100615.13
2023-01-01T09:20:28.829Z,100627.63
2023-01-01T09:23:31.494Z,100621.03
2023-01-01T09:26:34.370Z,100625.38
2023-01-01T09:29:38.313Z,100624.31
2023-01-01T09:32:41.041Z,100636.63
2023-01-01T09:35:44.504Z,100603.13
2023-01-01T09:38:52.455Z,100646.03
2023-01-01T09:42:10.956Z,100661.88
2023-01-01T09:45:23.340Z,100657.06
2023-01-01T09:48:27.430Z,100662.09
2023-01-01T09:51:34.802Z,100659.91
2023-01-01T09:54:40.879Z,100651.44
2023-01-01T09:57:43.681Z,100660.22
2023-01-01T10:00:53.710Z,100666.41
2023-01-01T10:04:08.363Z,100668.28
2023-01-01T10:07:19.162Z,100656.13
2023-01-01T10:10:33.471Z,100662.50
2023-01-01T10:13:40.728Z,100658.00
2023-01-01T10:16:48.186Z,100655.91
2023-01-01T10:19:53.235Z,100649.38
2023-01-01T10:23:00.752Z,100636.56
2023-01-01T10:26:09.551Z,100632.69
2023-01-01T10:29:17.659Z,100623.34
2023-01-01T10:32:27.724Z,100622.34
2023-01-01T10:35:42.843Z,100622.06
2023-01-01T10:38:45.981Z,100621.09
2023-01-01T10:41:49.225Z,100618.34
2023-01-01T10:44:53.578Z,100624.59
2023-01-01T10:48:15.166Z,100623.81
2023-01-01T10:51:20.440Z,100634.44
2023-01-01T10:54:32.660Z,100595.34
2023-01-01T10:57:40.389Z,100619.22
2023-01-01T11:00:43.238Z,100613.59
2023-01-01T11:04:01.538Z,100626.47
2023-01-01T11:07:08.266Z,100612.28
2023-01-01T11:10:18.713Z,100616.22
2023-01-01T11:13:22.660Z,100607.16
2023-01-01T11:16:26.728Z,100605.53
2023-01-01T11:19:33.637Z,100596.00
2023-01-01T11:22:39.349Z,100596.19
2023-01-01T11:25:58.158Z,100595.63
2023-01-01T11:29:03.439Z,100592.53
2023-01-01T11:32:08.879Z,100585.97
2023-01-01T11:35:20.219Z,100580.50
2023-01-01T11:38:29.898Z,100588.63
2023-01-01T11:41:43.201Z,100583.94
2023-01-01T11:44:48.693Z,100575.75
2023-01-01T11:47:56.657Z,100583.94
2023-01-01T11:51:03.637Z,100565.22
2023-01-01T11:54:13.143Z,100577.69
2023-01-01T11:57:23.092Z,100566.06
2023-01-01T12:00:25.980Z,100569.09
2023-01-01T12:03:34.331Z,100565.94
2023-01-01T12:06:46.329Z,100539.03
2023-01-01T12:09:57.533Z,100554.06
2023-01-01T12:13:05.609Z,100558.03
2023-01-01T12:16:13.632Z,100560.09
2023-01-01T12:19:23.631Z,100555.78
2023-01-01T12:22:27.960Z,100556.56
2023-01-01T12:25:37.224Z,100563.09
2023-01-01T12:28:49.138Z,100551.19
2023-01-01T12:32:04.476Z,100552.16
2023-01-01T12:35:23.745Z,100544.09
2023-01-01T12:38:43.224Z,100553.25
2023-01-01T12:41:55.021Z,100552.28
2023-01-01T12:45:14.485Z,100547.78
2023-01-01T12:48:34.822Z,100551.28
2023-01-01T12:51:48.295Z,100550.31
2023-01-01T12:55:35.679Z,100536.88
2023-01-01T12:58:44.835Z,100551.59
2023-01-01T13:01:49.228Z,100539.88
2023-01-01T13:04:56.324Z,100543.88
2023-01-01T13:08:04.244Z,100527.75
2023-01-01T13:11:08.803Z,100534.31
2023-01-01T13:14:13.282Z,100529.03
2023-01-01T13:17:21.648Z,100522.78
2023-01-01T13:20:26.560Z,100523.78
2023-01-01T13:24:03.841Z,100527.47
2023-01-01T13:27:11.257Z,100529.34
2023-01-01T13:30:47.747Z,100514.81
2023-01-01T13:34:20.327Z,100519.28
2023-01-01T13:37:45.168Z,100517.31
2023-01-01T13:40:52.695Z,100522.69
2023-01-01T13:44:13.809Z,100517.22
2023-01-01T13:47:34.274Z,100519.19
2023-01-01T13:50:46.205Z,100520.94
2023-01-01T13:54:08.215Z,100519.28
2023-01-01T13:57:32.776Z,100514.81
2023-01-01T14:00:46.542Z,100523.09
2023-01-01T14:03:57.471Z,100525.91
2023-01-01T14:07:32.869Z,100534.19
2023-01-01T14:10:33.217Z,100539.84
2023-01-01T14:13:41.829Z,100544.59
2023-01-01T14:16:44.588Z,100533.00
2023-01-01T14:19:48.739Z,100536.72
2023-01-01T14:22:53.707Z,100536.97
2023-01-01T14:25:56.530Z,100541.47
2023-01-01T14:29:01.125Z,100542.50
2023-01-01T14:32:14.964Z,100538.31
2023-01-01T14:35:19.033Z,100530.34
2023-01-01T14:38:27.157Z,100533.25
2023-01-01T14:41:32.289Z,100536.94
2023-01-01T14:44:37.616Z,100531.66
2023-01-01T14:47:40.324Z,100533.63
2023-01-01T14:50:49.069Z,100531.06
2023-01-01T14:53:53.978Z,100535.72
2023-01-01T14:56:56.854Z,100543.91
2023-01-01T14:59:59.784Z,100538.75
2023-01-01T15:03:13.908Z,100541.69
2023-01-01T15:06:18.759Z,100550.06
2023-01-01T15:09:21.554Z,100513.34
2023-01-01T15:12:24.886Z,100553.94
2023-01-01T15:15:42.516Z,100555.28
2023-01-01T15:18:46.998Z,100548.25
2023-01-01T15:21:51.088Z,100544.72
2023-01-01T15:24:54.903Z,100550.56
2023-01-01T15:27:58.025Z,100556.53
2023-01-01T15:31:00.960Z,100550.44
2023-01-01T15:34:04.871Z,100552.84
2023-01-01T15:37:15.718Z,100541.31
2023-01-01T15:40:40.539Z,100547.28
2023-01-01T15:43:43.208Z,100560.22
2023-01-01T15:46:48.348Z,100548.59
2023-01-01T15:49:51.087Z,100549.84
2023-01-01T15:52:59.076Z,100547.34
2023-01-01T15:56:04.864Z,100546.66
2023-01-01T15:59:22.995Z,100547.00
2023-01-01T16:02:31.234Z,100535.41
2023-01-01T16:05:34.061Z,100538.03
2023-01-01T16:08:38.314Z,100505.72
2023-01-01T16:11:41.139Z,100543.25
2023-01-01T16:14:43.831Z,100551.22
2023-01-01T16:17:47.249Z,100558.84
2023-01-01T16:20:50.059Z,100563.19
2023-01-01T16:23:54.466Z,100559.19
2023-01-01T16:26:57.370Z,100557.03
2023-01-01T16:30:00.148Z,100558.84
2023-01-01T16:33:16.446Z,100554.78
2023-01-01T16:36:19.226Z,100555.34
2023-01-01T16:39:23.362Z,100544.53
2023-01-01T16:42:27.293Z,100553.50
2023-01-01T16:45:29.983Z,100550.63
2023-01-01T16:48:32.612Z,100556.88
2023-01-01T16:51:35.564Z,100554.28
2023-01-01T16:54:40.215Z,100558.69
2023-01-01T16:57:43.478Z,100556.69
2023-01-01T17:00:47.390Z,100551.16
2023-01-01T17:03:50.655Z,100544.19
2023-01-01T17:06:53.967Z,100549.31
2023-01-01T17:09:58.132Z,100546.59
2023-01-01T17:13:02.923Z,100550.28
2023-01-01T17:16:06.220Z,100546.47
2023-01-01T17:19:15.073Z,100545.84
2023-01-01T17:22:21.272Z,100544.69
2023-01-01T17:25:25.378Z,100541.38
2023-01-01T17:28:28.168Z,100543.75
2023-01-01T17:31:31.227Z,100541.47
2023-01-01T17:34:33.979Z,100529.88
2023-01-01T17:37:39.884Z,100531.19
2023-01-01T17:40:46.247Z,100534.94
2023-01-01T17:43:50.677Z,100542.44
2023-01-01T17:46:55.298Z,100533.09
2023-01-01T17:49:58.013Z,100527.44
2023-01-01T17:53:00.717Z,100525.28
2023-01-01T17:56:05.572Z,100534.78
2023-01-01T17:59:09.392Z,100525.97
2023-01-01T18:02:13.275Z,100515.81
2023-01-01T18:05:15.991Z,100505.84
2023-01-01T18:08:28.047Z,100516.19
2023-01-01T18:11:33.884Z,100514.84
2023-01-01T18:14:38.867Z,100505.88
2023-01-01T18:17:41.509Z,100504.25
2023-01-01T18:20:46.413Z,100507.38
2023-01-01T18:23:50.423Z,100508.94
2023-01-01T18:26:57.148Z,100509.22
2023-01-01T18:30:02.612Z,100515.34
2023-01-01T18:33:06.033Z,100507.78
2023-01-01T18:36:10.406Z,100504.00
2023-01-01T18:39:16.881Z,100496.53
2023-01-01T18:42:35.572Z,100494.66
2023-01-01T18:45:39.075Z,100490.84
2023-01-01T18:48:43.052Z,100490.84
2023-01-01T18:51:48.941Z,100477.09
2023-01-01T18:55:12.909Z,100476.03
2023-01-01T18:58:19.900Z,100460.06
2023-01-01T19:01:24.452Z,100461.53
2023-01-01T19:04:27.365Z,100447.84
2023-01-01T19:07:37.391Z,100455.91
2023-01-01T19:10:41.758Z,100444.75
2023-01-01T19:13:45.957Z,100450.94
2023-01-01T19:16:50.282Z,100451.06
2023-01-01T19:19:53.371Z,100452.44
2023-01-01T19:22:57.539Z,100451.69
2023-01-01T19:26:03.932Z,100458.94
2023-01-01T19:29:13.987Z,100450.63
2023-01-01T19:32:17.106Z,100445.47
2023-01-01T19:35:19.931Z,100447.28
2023-01-01T19:38:23.030Z,100436.38
2023-01-01T19:41:26.064Z,100435.41
2023-01-01T19:44:32.519Z,100436.09
2023-01-01T19:47:38.200Z,100426.41
2023-01-01T19:50:40.876Z,100436.63
2023-01-01T19:53:43.580Z,100433.66
2023-01-01T19:56:47.396Z,100434.03
2023-01-01T19:59:51.450Z,100432.28
2023-01-01T20:02:54.753Z,100426.13
2023-01-01T20:05:57.827Z,100429.03
2023-01-01T20:09:00.501Z,100438.34
2023-01-01T20:12:03.884Z,100436.72
2023-01-01T20:15:09.012Z,100395.06
2023-01-01T20:18:12.117Z,100437.50
2023-01-01T20:21:32.313Z,100429.38
2023-01-01T20:24:35.015Z,100430.69
2023-01-01T20:27:58.215Z,100425.09
2023-01-01T20:31:02.255Z,100428.81
2023-01-01T20:34:04.897Z,100390.66
2023-01-01T20:37:25.144Z,100427.84
2023-01-01T20:40:27.761Z,100419.22
2023-01-01T20:43:30.572Z,100434.66
2023-01-01T20:46:36.052Z,100428.34
2023-01-01T20:49:39.041Z,100431.56
2023-01-01T20:52:41.673Z,100433.22
2023-01-01T20:55:44.483Z,100443.69
2023-01-01T20:58:50.168Z,100445.41
2023-01-01T21:01:56.353Z,100451.66
2023-01-01T21:04:59.082Z,100453.16
2023-01-01T21:08:02.158Z,100441.25
2023-01-01T21:11:05.266Z,100438.63
2023-01-01T21:14:07.973Z,100440.19
2023-01-01T21:17:22.045Z,100419.44
2023-01-01T21:20:26.747Z,100440.63
2023-01-01T21:23:30.908Z,100445.66
2023-01-01T21:26:36.981Z,100444.78
2023-01-01T21:29:44.967Z,100438.84
2023-01-01T21:32:50.658Z,100444.16
2023-01-01T21:35:53.507Z,100441.13
2023-01-01T21:38:57.441Z,100440.38
2023-01-01T21:42:10.348Z,100433.28
2023-01-01T21:45:19.974Z,100432.19
2023-01-01T21:48:29.835Z,100457.50
2023-01-01T21:51:34.354Z,100455.47
2023-01-01T21:54:39.505Z,100457.47
2023-01-01T21:57:42.465Z,100460.03
2023-01-01T22:00:45.179Z,100456.59
2023-01-01T22:03:59.179Z,100461.38
2023-01-01T22:07:30.783Z,100457.97
2023-01-01T22:10:35.239Z,100461.94
2023-01-01T22:13:37.938Z,100457.53
2023-01-01T22:16:40.723Z,100453.00
2023-01-01T22:19:46.130Z,100457.13
2023-01-01T22:22:49.281Z,100463.63
2023-01-01T22:25:53.323Z,100472.72
2023-01-01T22:29:00.889Z,100465.00
2023-01-01T22:32:13.724Z,100477.41
2023-01-01T22:35:26.768Z,100465.06
2023-01-01T22:38:33.946Z,100472.44
2023-01-01T22:41:36.630Z,100463.13
2023-01-01T22:44:39.361Z,100459.78
2023-01-01T22:47:44.600Z,100468.53
2023-01-01T22:50:49.377Z,100453.19
2023-01-01T22:53:51.987Z,100448.78
2023-01-01T22:56:54.639Z,100452.38
2023-01-01T23:00:04.234Z,100456.13
2023-01-01T23:03:09.119Z,100440.91
2023-01-01T23:06:13.683Z,100444.84
2023-01-01T23:09:16.515Z,100435.63
2023-01-01T23:12:19.179Z,100430.97
2023-01-01T23:15:39.296Z,100439.91
2023-01-01T23:18:42.066Z,100429.75
2023-01-01T23:21:46.571Z,100431.88
2023-01-01T23:24:52.072Z,100424.50
2023-01-01T23:27:55.647Z,100429.91
2023-01-01T23:30:59.628Z,100427.34
2023-01-01T23:34:02.679Z,100427.59
2023-01-01T23:37:06.836Z,100430.03
2023-01-01T23:40:12.825Z,100425.00
2023-01-01T23:43:15.506Z,100423.38
2023-01-01T23:46:19.632Z,100418.84
2023-01-01T23:49:23.361Z,100408.81
2023-01-01T23:52:27.573Z,100407.84
2023-01-01T23:55:30.209Z,100414.19
2023-01-01T23:58:32.875Z,100415.69
